Time,TemperatureF,DewpointF,PressureIn,WindDirection,WindDirectionDegrees,WindSpeedMPH,WindSpeedGustMPH,Humidity,HourlyPrecipIn,Conditions,Clouds,dailyrainin,SoftwareType,DateUTC
2013-02-24 00:13:00,38.8,37.0,29.78,WNW,292,0.0,0.0,93,0.00,,,0.00,weatherlink.com 1.10,2013-02-24 05:13:00,
2013-02-24 00:28:00,38.8,37.0,29.78,WNW,292,1.0,2.0,93,0.00,,,0.00,weatherlink.com 1.10,2013-02-24 05:28:00,
2013-02-24 00:43:00,38.8,37.0,29.79,WNW,292,1.0,2.0,93,0.00,,,0.00,weatherlink.com 1.10,2013-02-24 05:43:00,
2013-02-24 00:58:00,38.8,37.0,29.79,WNW,298,2.0,3.0,93,0.00,,,0.00,weatherlink.com 1.10,2013-02-24 05:58:00,
2013-02-24 01:13:00,38.8,37.0,29.80,WNW,302,1.0,4.0,93,0.00,,,0.00,weatherlink.com 1.10,2013-02-24 06:13:00,
2013-02-24 01:28:00,38.8,37.0,29.80,NW,304,1.0,5.0,93,0.00,,,0.00,weatherlink.com 1.10,2013-02-24 06:28:00,
2013-02-24 01:43:00,38.8,37.0,29.81,WNW,294,0.0,3.0,93,0.00,,,0.00,weatherlink.com 1.10,2013-02-24 06:43:00,
2013-02-24 01:58:00,38.8,37.0,29.80,NW,306,0.0,3.0,93,0.00,,,0.00,weatherlink.com 1.10,2013-02-24 06:58:00,
2013-02-24 02:13:00,38.9,37.0,29.80,WNW,287,2.0,4.0,93,0.00,,,0.00,weatherlink.com 1.10,2013-02-24 07:13:00,
2013-02-24 02:28:00,38.9,37.0,29.79,WNW,284,3.0,5.0,93,0.00,,,0.00,weatherlink.com 1.10,2013-02-24 07:28:00,
2013-02-24 02:43:00,38.9,37.0,29.78,NW,306,2.0,4.0,93,0.00,,,0.00,weatherlink.com 1.10,2013-02-24 07:43:00,
2013-02-24 02:58:00,38.7,37.0,29.78,WNW,298,2.0,3.0,93,0.00,,,0.00,weatherlink.com 1.10,2013-02-24 07:58:00,
2013-02-24 03:13:00,38.6,37.0,29.77,WNW,296,2.0,5.0,94,0.00,,,0.00,weatherlink.com 1.10,2013-02-24 08:13:00,
2013-02-24 03:28:00,38.5,37.0,29.75,NW,306,2.0,3.0,94,0.00,,,0.00,weatherlink.com 1.10,2013-02-24 08:28:00,
2013-02-24 03:43:00,38.3,37.0,29.75,WNW,290,2.0,4.0,94,0.00,,,0.00,weatherlink.com 1.10,2013-02-24 08:43:00,
2013-02-24 03:58:00,38.2,37.0,29.76,WNW,292,4.0,4.0,94,0.00,,,0.00,weatherlink.com 1.10,2013-02-24 08:58:00,
2013-02-24 04:13:00,37.9,36.0,29.77,WNW,286,3.0,6.0,94,0.00,,,0.00,weatherlink.com 1.10,2013-02-24 09:13:00,
2013-02-24 04:28:00,37.4,36.0,29.78,NW,306,3.0,5.0,94,0.00,,,0.00,weatherlink.com 1.10,2013-02-24 09:28:00,
2013-02-24 04:43:00,37.2,36.0,29.79,West,281,4.0,4.0,95,0.00,,,0.00,weatherlink.com 1.10,2013-02-24 09:43:00,
2013-02-24 04:58:00,37.1,36.0,29.80,NW,311,2.0,3.0,94,0.00,,,0.00,weatherlink.com 1.10,2013-02-24 09:58:00,
2013-02-24 05:13:00,37.0,36.0,29.79,WNW,300,0.0,2.0,95,0.00,,,0.00,weatherlink.com 1.10,2013-02-24 10:13:00,
2013-02-24 05:28:00,36.8,36.0,29.79,WNW,300,0.0,0.0,95,0.00,,,0.00,weatherlink.com 1.10,2013-02-24 10:28:00,
2013-02-24 05:43:00,36.6,35.0,29.79,WNW,300,0.0,0.0,95,0.00,,,0.00,weatherlink.com 1.10,2013-02-24 10:43:00,
2013-02-24 05:58:00,36.4,35.0,29.79,WNW,300,0.0,0.0,94,0.00,,,0.00,weatherlink.com 1.10,2013-02-24 10:58:00,
2013-02-24 06:13:00,36.0,35.0,29.79,WNW,300,0.0,1.0,94,0.00,,,0.00,weatherlink.com 1.10,2013-02-24 11:13:00,
2013-02-24 06:28:00,35.7,34.0,29.80,West,273,2.0,3.0,94,0.00,,,0.00,weatherlink.com 1.10,2013-02-24 11:28:00,
2013-02-24 06:43:00,35.6,34.0,29.80,WNW,294,1.0,3.0,94,0.00,,,0.00,weatherlink.com 1.10,2013-02-24 11:43:00,
2013-02-24 06:59:00,35.5,34.0,29.80,NW,306,2.0,3.0,94,0.00,,,0.00,weatherlink.com 1.10,2013-02-24 11:59:00,
2013-02-24 07:13:00,35.3,34.0,29.80,West,278,1.0,3.0,93,0.00,,,0.00,weatherlink.com 1.10,2013-02-24 12:13:00,
2013-02-24 07:28:00,35.8,34.0,29.80,West,276,0.0,2.0,94,0.00,,,0.00,weatherlink.com 1.10,2013-02-24 12:28:00,
2013-02-24 07:43:00,37.3,35.0,29.80,West,276,0.0,0.0,90,0.00,,,0.00,weatherlink.com 1.10,2013-02-24 12:43:00,
2013-02-24 07:58:00,39.3,36.0,29.81,West,281,3.0,4.0,87,0.00,,,0.00,weatherlink.com 1.10,2013-02-24 12:58:00,
2013-02-24 08:13:00,40.8,36.0,29.82,West,264,3.0,6.0,83,0.00,,,0.00,weatherlink.com 1.10,2013-02-24 13:13:00,
2013-02-24 08:29:00,42.3,35.0,29.82,West,280,5.0,9.0,76,0.00,,,0.00,weatherlink.com 1.10,2013-02-24 13:29:00,
2013-02-24 08:44:00,43.0,33.0,29.82,WNW,297,11.0,11.0,69,0.00,,,0.00,weatherlink.com 1.10,2013-02-24 13:44:00,
2013-02-24 08:59:00,43.2,33.0,29.83,WNW,284,6.0,14.0,67,0.00,,,0.00,weatherlink.com 1.10,2013-02-24 13:59:00,
2013-02-24 09:14:00,43.3,32.0,29.84,NW,311,7.0,17.0,65,0.00,,,0.00,weatherlink.com 1.10,2013-02-24 14:14:00,
2013-02-24 09:29:00,43.6,32.0,29.84,WNW,286,6.0,12.0,63,0.00,,,0.00,weatherlink.com 1.10,2013-02-24 14:29:00,
2013-02-24 09:44:00,44.7,31.0,29.85,WNW,297,8.0,17.0,58,0.00,,,0.00,weatherlink.com 1.10,2013-02-24 14:44:00,
2013-02-24 09:59:00,44.6,29.0,29.85,NW,321,17.0,18.0,54,0.00,,,0.00,weatherlink.com 1.10,2013-02-24 14:59:00,
2013-02-24 10:14:00,44.8,28.0,29.85,West,278,7.0,19.0,53,0.00,,,0.00,weatherlink.com 1.10,2013-02-24 15:14:00,
2013-02-24 10:29:00,44.8,28.0,29.85,WNW,303,7.0,22.0,52,0.00,,,0.00,weatherlink.com 1.10,2013-02-24 15:29:00,
2013-02-24 10:44:00,45.4,28.0,29.86,WNW,303,12.0,20.0,50,0.00,,,0.00,weatherlink.com 1.10,2013-02-24 15:44:00,
2013-02-24 10:59:00,46.2,27.0,29.86,WNW,290,8.0,20.0,48,0.00,,,0.00,weatherlink.com 1.10,2013-02-24 15:59:00,
2013-02-24 11:14:00,45.7,28.0,29.86,WNW,290,12.0,14.0,50,0.00,,,0.00,weatherlink.com 1.10,2013-02-24 16:14:00,
2013-02-24 11:29:00,46.0,28.0,29.86,WNW,293,7.0,13.0,49,0.00,,,0.00,weatherlink.com 1.10,2013-02-24 16:29:00,
2013-02-24 11:44:00,46.5,28.0,29.85,WNW,289,6.0,17.0,49,0.00,,,0.00,weatherlink.com 1.10,2013-02-24 16:44:00,
2013-02-24 11:59:00,46.8,28.0,29.85,WNW,298,4.0,12.0,48,0.00,,,0.00,weatherlink.com 1.10,2013-02-24 16:59:00,
2013-02-24 12:14:00,46.6,26.0,29.85,NW,306,4.0,13.0,45,0.00,,,0.00,weatherlink.com 1.10,2013-02-24 17:14:00,
2013-02-24 12:29:00,45.2,26.0,29.85,West,281,8.0,9.0,47,0.00,,,0.00,weatherlink.com 1.10,2013-02-24 17:29:00,
2013-02-24 12:44:00,44.9,26.0,29.84,West,277,2.0,8.0,48,0.00,,,0.00,weatherlink.com 1.10,2013-02-24 17:44:00,
2013-02-24 12:59:00,44.9,26.0,29.84,NW,323,4.0,14.0,48,0.00,,,0.00,weatherlink.com 1.10,2013-02-24 17:59:00,
2013-02-24 13:14:00,47.2,27.0,29.84,WNW,289,8.0,17.0,45,0.00,,,0.00,weatherlink.com 1.10,2013-02-24 18:14:00,
2013-02-24 13:29:00,49.3,27.0,29.84,West,270,8.0,17.0,42,0.00,,,0.00,weatherlink.com 1.10,2013-02-24 18:29:00,
2013-02-24 13:44:00,47.7,26.0,29.84,WNW,296,6.0,13.0,43,0.00,,,0.00,weatherlink.com 1.10,2013-02-24 18:44:00,
2013-02-24 13:59:00,47.2,26.0,29.83,WNW,296,11.0,21.0,43,0.00,,,0.00,weatherlink.com 1.10,2013-02-24 18:59:00,
2013-02-24 14:14:00,47.1,25.0,29.84,WNW,296,14.0,20.0,43,0.00,,,0.00,weatherlink.com 1.10,2013-02-24 19:14:00,
2013-02-24 14:29:00,47.2,26.0,29.84,WNW,286,6.0,19.0,44,0.00,,,0.00,weatherlink.com 1.10,2013-02-24 19:29:00,
2013-02-24 14:44:00,45.4,25.0,29.85,NW,309,9.0,21.0,45,0.00,,,0.00,weatherlink.com 1.10,2013-02-24 19:44:00,
2013-02-24 14:59:00,44.2,25.0,29.86,WNW,285,18.0,-999.0,48,-99.99,,,0.00,weatherlink.com 1.10,2013-02-24 19:59:00,
2013-02-24 15:14:00,42.3,26.0,29.88,NW,313,8.0,18.0,52,0.00,,,0.00,weatherlink.com 1.10,2013-02-24 20:14:00,
2013-02-24 15:30:00,41.2,25.0,29.88,WNW,297,9.0,16.0,53,0.00,,,0.00,weatherlink.com 1.10,2013-02-24 20:30:00,
2013-02-24 15:45:00,40.2,25.0,29.90,West,281,14.0,22.0,56,0.00,,,0.00,weatherlink.com 1.10,2013-02-24 20:45:00,
2013-02-24 16:00:00,38.9,24.0,29.91,NW,309,10.0,21.0,56,0.00,,,0.00,weatherlink.com 1.10,2013-02-24 21:00:00,
2013-02-24 16:15:00,38.5,24.0,29.92,WNW,288,3.0,15.0,56,0.00,,,0.00,weatherlink.com 1.10,2013-02-24 21:15:00,
2013-02-24 16:30:00,38.8,25.0,29.93,WNW,299,9.0,19.0,57,0.00,,,0.00,weatherlink.com 1.10,2013-02-24 21:30:00,
2013-02-24 16:45:00,38.2,24.0,29.94,NW,314,8.0,23.0,57,0.00,,,0.00,weatherlink.com 1.10,2013-02-24 21:45:00,
2013-02-24 17:00:00,37.5,24.0,29.95,West,276,6.0,15.0,58,0.00,,,0.00,weatherlink.com 1.10,2013-02-24 22:00:00,
2013-02-24 17:15:00,36.8,24.0,29.96,NW,305,2.0,13.0,60,0.00,,,0.00,weatherlink.com 1.10,2013-02-24 22:15:00,
2013-02-24 17:30:00,36.4,24.0,29.96,WNW,288,6.0,12.0,61,0.00,,,0.00,weatherlink.com 1.10,2013-02-24 22:30:00,
2013-02-24 17:45:00,35.7,25.0,29.97,WNW,294,10.0,10.0,64,0.00,,,0.00,weatherlink.com 1.10,2013-02-24 22:45:00,
2013-02-24 18:00:00,35.1,24.0,29.98,WNW,282,1.0,14.0,65,0.00,,,0.00,weatherlink.com 1.10,2013-02-24 23:00:00,
2013-02-24 18:15:00,34.6,23.0,29.99,WNW,296,9.0,11.0,64,0.00,,,0.00,weatherlink.com 1.10,2013-02-24 23:15:00,
2013-02-24 18:30:00,34.5,23.0,30.00,NW,311,8.0,17.0,62,0.00,,,0.00,weatherlink.com 1.10,2013-02-24 23:30:00,
2013-02-24 18:44:00,34.5,22.0,30.01,WNW,302,4.0,14.0,61,0.00,,,0.00,weatherlink.com 1.10,2013-02-24 23:44:00,
2013-02-24 19:00:00,34.3,22.0,30.02,WNW,285,4.0,9.0,60,0.00,,,0.00,weatherlink.com 1.10,2013-02-25 00:00:00,
2013-02-24 19:15:00,34.1,21.0,30.02,WNW,301,6.0,12.0,59,0.00,,,0.00,weatherlink.com 1.10,2013-02-25 00:15:00,
2013-02-24 19:30:00,33.4,20.0,30.03,WNW,285,5.0,9.0,59,0.00,,,0.00,weatherlink.com 1.10,2013-02-25 00:30:00,
2013-02-24 19:45:00,32.8,19.0,30.04,NNW,333,4.0,15.0,58,0.00,,,0.00,weatherlink.com 1.10,2013-02-25 00:45:00,
2013-02-24 20:00:00,32.6,19.0,30.05,NW,304,0.0,8.0,58,0.00,,,0.00,weatherlink.com 1.10,2013-02-25 01:00:00,
2013-02-24 20:15:00,32.1,19.0,30.05,WNW,292,2.0,4.0,58,0.00,,,0.00,weatherlink.com 1.10,2013-02-25 01:15:00,
2013-02-24 20:30:00,31.7,19.0,30.05,NW,309,4.0,6.0,59,0.00,,,0.00,weatherlink.com 1.10,2013-02-25 01:30:00,
2013-02-24 20:45:00,31.5,19.0,30.05,WNW,290,4.0,7.0,59,0.00,,,0.00,weatherlink.com 1.10,2013-02-25 01:45:00,
2013-02-24 21:01:00,31.2,18.0,30.06,WNW,294,1.0,4.0,59,0.00,,,0.00,weatherlink.com 1.10,2013-02-25 02:01:00,
2013-02-24 21:16:00,30.9,19.0,30.05,NW,306,4.0,8.0,61,0.00,,,0.00,weatherlink.com 1.10,2013-02-25 02:16:00,
2013-02-24 21:31:00,30.8,19.0,30.06,NW,306,0.0,5.0,62,0.00,,,0.00,weatherlink.com 1.10,2013-02-25 02:31:00,
2013-02-24 21:46:00,30.3,19.0,30.06,NW,319,2.0,4.0,63,0.00,,,0.00,weatherlink.com 1.10,2013-02-25 02:46:00,
2013-02-24 22:01:00,30.1,19.0,30.07,NW,319,1.0,4.0,63,0.00,,,0.00,weatherlink.com 1.10,2013-02-25 03:01:00,
2013-02-24 22:16:00,29.7,19.0,30.07,WNW,286,2.0,3.0,64,0.00,,,0.00,weatherlink.com 1.10,2013-02-25 03:16:00,
2013-02-24 22:31:00,29.1,19.0,30.07,WNW,296,3.0,4.0,66,0.00,,,0.00,weatherlink.com 1.10,2013-02-25 03:31:00,
2013-02-24 23:01:00,28.7,19.0,30.07,North,355,2.0,2.0,67,0.00,,,0.00,weatherlink.com 1.10,2013-02-25 04:01:00,
2013-02-24 23:16:00,27.7,19.0,30.07,WNW,300,2.0,3.0,69,0.00,,,0.00,weatherlink.com 1.10,2013-02-25 04:16:00,
2013-02-24 23:31:00,27.5,19.0,30.07,WNW,300,0.0,2.0,70,0.00,,,0.00,weatherlink.com 1.10,2013-02-25 04:31:00,
2013-02-24 23:46:00,27.1,19.0,30.07,WNW,300,0.0,1.0,71,0.00,,,0.00,weatherlink.com 1.10,2013-02-25 04:46:00,